Time;durP1;ratioP1;P1;durP2;ratioP2;P2;SDS_P1;SDS_P2;PMS_P1;PMS_P2;Temp;Humidity;BMP_temperature;BMP_pressure;BME280_temperature;BME280_humidity;BME280_pressure;Samples;Min_cycle;Max_cycle;Signal;HPM_P1;HPM_P2
2022/07/05 00:01:14;;;;;;;;;;;21.40;99.90;;;;;;4881845;29;19935;-81
2022/07/05 00:03:41;;;;;;;;;;;21.40;99.90;;;;;;4897310;29;19931;-82
2022/07/05 00:06:09;;;;;;;;;;;21.40;99.90;;;;;;4881262;29;20391;-81
2022/07/05 00:08:36;;;;;;;;;;;21.50;99.90;;;;;;4897379;29;19927;-81
2022/07/05 00:11:03;;;;;;;;;;;21.50;99.90;;;;;;4881742;29;19931;-82
2022/07/05 00:13:32;;;;;;;;;;;21.50;99.90;;;;;;4881412;29;20391;-82
2022/07/05 00:15:59;;;;;;;;;;;21.50;99.90;;;;;;4881779;29;19927;-82
2022/07/05 00:18:26;;;;;;;;;;;21.50;99.90;;;;;;4898065;29;19954;-82
2022/07/05 00:20:53;;;;;;;;;;;21.60;99.90;;;;;;4896872;29;19935;-81
2022/07/05 00:23:21;;;;;;;;;;;21.60;99.90;;;;;;4881653;29;20006;-81
2022/07/05 00:25:48;;;;;;;;;;;21.60;99.90;;;;;;4898644;29;19934;-81
2022/07/05 00:28:15;;;;;;;;;;;21.60;99.90;;;;;;4881694;29;19934;-81
2022/07/05 00:30:44;;;;;;;;;;;21.60;99.90;;;;;;4881358;29;19975;-83
2022/07/05 00:33:11;;;;;;;;;;;21.70;99.90;;;;;;4898478;29;20399;-82
2022/07/05 00:35:38;;;;;;;;;;;21.70;99.90;;;;;;4898168;29;20348;-83
2022/07/05 00:38:05;;;;;;;;;;;21.70;99.90;;;;;;4898406;29;20016;-83
2022/07/05 00:40:32;;;;;;;;;;;21.70;99.90;;;;;;4896822;29;20334;-83
2022/07/05 00:42:59;;;;;;;;;;;21.70;99.90;;;;;;4896702;29;19927;-83
2022/07/05 00:45:27;;;;;;;;;;;21.70;99.90;;;;;;4896754;29;19927;-83
2022/07/05 00:47:55;;;;;;;;;;;21.70;99.90;;;;;;4896743;29;19992;-82
2022/07/05 00:50:23;;;;;;;;;;;21.70;99.90;;;;;;4896703;29;19970;-83
2022/07/05 00:52:53;;;;;;;;;;;21.70;99.90;;;;;;4897929;29;20292;-82
2022/07/05 00:55:20;;;;;;;;;;;21.80;99.90;;;;;;4881085;29;20002;-82
2022/07/05 00:57:48;;;;;;;;;;;21.80;99.90;;;;;;4896329;29;19927;-82
2022/07/05 01:00:15;;;;;;;;;;;21.80;99.90;;;;;;4881080;29;20460;-83
2022/07/05 01:02:42;;;;;;;;;;;21.90;99.90;;;;;;4880707;29;19983;-83
2022/07/05 01:05:11;;;;;;;;;;;21.90;99.90;;;;;;4896388;29;19976;-83
2022/07/05 01:07:38;;;;;;;;;;;22.00;99.90;;;;;;4896550;29;20065;-84
2022/07/05 01:10:06;;;;;;;;;;;22.00;99.90;;;;;;4896579;29;19991;-83
2022/07/05 01:12:33;;;;;;;;;;;22.00;99.90;;;;;;4897438;29;19927;-83
2022/07/05 01:15:00;;;;;;;;;;;22.10;99.90;;;;;;4880687;29;19927;-83
2022/07/05 01:17:28;;;;;;;;;;;22.00;99.90;;;;;;4912257;29;20030;-83
2022/07/05 01:19:56;;;;;;;;;;;21.90;99.90;;;;;;4881519;29;19934;-83
2022/07/05 01:22:26;;;;;;;;;;;21.80;99.90;;;;;;4900336;29;19931;-83
2022/07/05 01:24:55;;;;;;;;;;;21.40;99.90;;;;;;4901474;29;19935;-82
2022/07/05 01:27:22;;;;;;;;;;;20.70;99.90;;;;;;4885484;29;19927;-82
2022/07/05 01:29:49;;;;;;;;;;;20.20;99.90;;;;;;4899484;29;19931;-82
2022/07/05 01:32:17;;;;;;;;;;;19.90;99.90;;;;;;4899360;29;19927;-81
2022/07/05 01:34:45;;;;;;;;;;;19.70;99.90;;;;;;4881084;29;20454;-82
2022/07/05 01:37:12;;;;;;;;;;;19.60;99.90;;;;;;4897548;29;20030;-81
2022/07/05 01:39:40;;;;;;;;;;;19.50;99.90;;;;;;4880539;29;19927;-81
2022/07/05 01:42:08;;;;;;;;;;;19.50;99.90;;;;;;4912166;29;19935;-82
2022/07/05 01:44:35;;;;;;;;;;;19.50;99.90;;;;;;4897925;29;19927;-82
2022/07/05 01:47:06;;;;;;;;;;;19.50;99.90;;;;;;4896635;29;19928;-81
2022/07/05 01:49:37;;;;;;;;;;;19.40;99.90;;;;;;4897592;29;19935;-83
2022/07/05 01:52:09;;;;;;;;;;;19.40;99.90;;;;;;4895727;29;19979;-82
2022/07/05 01:54:36;;;;;;;;;;;19.30;99.90;;;;;;4897011;29;20311;-82
2022/07/05 01:57:05;;;;;;;;;;;19.30;99.90;;;;;;4897235;29;19932;-82
2022/07/05 01:59:34;;;;;;;;;;;19.20;99.90;;;;;;4896603;29;19955;-83
2022/07/05 02:02:02;;;;;;;;;;;19.20;99.90;;;;;;4896304;29;19927;-82
2022/07/05 02:04:29;;;;;;;;;;;19.10;99.90;;;;;;4880973;29;19949;-80
2022/07/05 02:06:56;;;;;;;;;;;19.10;99.90;;;;;;4881030;29;19927;-81
2022/07/05 02:09:24;;;;;;;;;;;19.10;99.90;;;;;;4895892;29;20351;-81
2022/07/05 02:11:52;;;;;;;;;;;19.10;99.90;;;;;;4895887;29;19927;-84
2022/07/05 02:14:20;;;;;;;;;;;19.10;99.90;;;;;;4897436;29;19931;-82
2022/07/05 02:16:49;;;;;;;;;;;19.00;99.90;;;;;;4895371;29;19973;-82
2022/07/05 02:19:18;;;;;;;;;;;19.10;99.90;;;;;;4895380;29;20026;-82
2022/07/05 02:21:47;;;;;;;;;;;19.10;99.90;;;;;;4880568;29;19934;-83
2022/07/05 02:24:18;;;;;;;;;;;19.10;99.90;;;;;;4895923;29;19931;-83
2022/07/05 02:26:54;;;;;;;;;;;19.10;99.90;;;;;;4895406;29;20387;-83
2022/07/05 02:29:22;;;;;;;;;;;19.00;99.90;;;;;;4895810;29;19960;-83
2022/07/05 02:31:51;;;;;;;;;;;19.00;99.90;;;;;;4896084;29;19927;-82
2022/07/05 02:34:18;;;;;;;;;;;19.00;99.90;;;;;;4895519;29;20387;-83
2022/07/05 02:36:47;;;;;;;;;;;19.00;99.90;;;;;;4895747;29;19927;-82
2022/07/05 02:39:15;;;;;;;;;;;18.90;99.90;;;;;;4895852;29;20035;-82
2022/07/05 02:41:44;;;;;;;;;;;18.90;99.90;;;;;;4879893;29;19973;-81
2022/07/05 02:44:11;;;;;;;;;;;18.90;99.90;;;;;;4880293;29;19953;-82
2022/07/05 02:46:39;;;;;;;;;;;18.90;99.90;;;;;;4881127;29;20008;-83
2022/07/05 02:49:08;;;;;;;;;;;18.90;99.90;;;;;;4897138;29;20379;-82
2022/07/05 02:51:36;;;;;;;;;;;18.90;99.90;;;;;;4894436;29;19928;-82
2022/07/05 02:54:05;;;;;;;;;;;18.90;99.90;;;;;;4895210;29;20291;-82
2022/07/05 02:56:35;;;;;;;;;;;18.90;99.90;;;;;;4894826;29;20314;-83
2022/07/05 02:59:03;;;;;;;;;;;18.90;99.90;;;;;;4895643;29;20109;-83
2022/07/05 03:01:33;;;;;;;;;;;18.90;99.90;;;;;;4879912;29;19931;-83
2022/07/05 03:04:06;;;;;;;;;;;18.90;99.90;;;;;;4880754;29;19931;-83
2022/07/05 03:06:35;;;;;;;;;;;18.90;99.90;;;;;;4895546;29;19931;-84
2022/07/05 03:09:02;;;;;;;;;;;18.80;99.90;;;;;;4894829;29;20304;-84
2022/07/05 03:11:29;;;;;;;;;;;18.80;99.90;;;;;;4911681;29;19934;-84
2022/07/05 03:13:58;;;;;;;;;;;18.80;99.90;;;;;;4895384;29;19927;-84
2022/07/05 03:16:25;;;;;;;;;;;18.80;99.90;;;;;;4895547;29;19934;-84
2022/07/05 03:18:53;;;;;;;;;;;18.70;99.90;;;;;;4880019;29;19934;-85
2022/07/05 03:21:22;;;;;;;;;;;18.70;99.90;;;;;;4879134;29;19983;-83
2022/07/05 03:23:50;;;;;;;;;;;18.70;99.90;;;;;;4878935;29;19928;-81
2022/07/05 03:26:18;;;;;;;;;;;18.70;99.90;;;;;;4879238;29;19927;-82
2022/07/05 03:28:46;;;;;;;;;;;18.70;99.90;;;;;;4895413;29;19934;-83
2022/07/05 03:31:14;;;;;;;;;;;18.70;99.90;;;;;;4896575;29;19958;-83
2022/07/05 03:33:43;;;;;;;;;;;18.70;99.90;;;;;;4898871;29;20426;-82
2022/07/05 03:36:12;;;;;;;;;;;18.70;99.90;;;;;;4898759;29;19931;-82
2022/07/05 03:38:41;;;;;;;;;;;18.70;99.90;;;;;;4883575;29;19934;-82
2022/07/05 03:41:10;;;;;;;;;;;18.70;99.90;;;;;;4899203;29;19927;-82
2022/07/05 03:43:38;;;;;;;;;;;18.70;99.90;;;;;;4885362;29;19934;-84
2022/07/05 03:46:07;;;;;;;;;;;18.70;99.90;;;;;;4904745;29;19927;-86
2022/07/05 03:48:37;;;;;;;;;;;18.70;99.90;;;;;;4903816;29;19927;-82
2022/07/05 03:51:04;;;;;;;;;;;18.70;99.90;;;;;;4897665;29;19927;-80
2022/07/05 03:53:32;;;;;;;;;;;18.70;99.90;;;;;;4897870;29;19934;-80
2022/07/05 03:56:01;;;;;;;;;;;18.70;99.90;;;;;;4897702;29;20026;-81
2022/07/05 03:58:31;;;;;;;;;;;18.70;99.90;;;;;;4899792;29;20349;-81
2022/07/05 04:00:59;;;;;;;;;;;18.70;99.90;;;;;;4900288;29;19928;-81
2022/07/05 04:03:27;;;;;;;;;;;18.60;99.90;;;;;;4898757;29;19975;-81
2022/07/05 04:05:56;;;;;;;;;;;18.70;99.90;;;;;;4897899;29;19931;-81
2022/07/05 04:08:24;;;;;;;;;;;18.70;99.90;;;;;;4882502;29;20022;-79
2022/07/05 04:10:51;;;;;;;;;;;18.80;99.90;;;;;;4897364;29;19927;-80
2022/07/05 04:13:21;;;;;;;;;;;18.70;99.90;;;;;;4898919;29;20405;-79
2022/07/05 04:15:53;;;;;;;;;;;18.70;99.90;;;;;;4881782;29;19958;-80
2022/07/05 04:18:20;;;;;;;;;;;18.80;99.90;;;;;;4898252;29;19990;-81
2022/07/05 04:20:48;;;;;;;;;;;18.80;99.90;;;;;;4882708;29;19933;-83
2022/07/05 04:23:15;;;;;;;;;;;18.80;99.90;;;;;;4882416;29;20025;-83
2022/07/05 04:25:42;;;;;;;;;;;18.90;99.90;;;;;;4898537;29;19927;-81
2022/07/05 04:28:17;;;;;;;;;;;19.00;99.90;;;;;;4897538;29;19933;-81
2022/07/05 04:30:45;;;;;;;;;;;19.10;99.90;;;;;;4897619;29;20343;-82
2022/07/05 04:33:16;;;;;;;;;;;19.30;99.90;;;;;;4897162;29;19939;-77
2022/07/05 04:35:46;;;;;;;;;;;19.40;99.90;;;;;;4897131;29;20308;-75
2022/07/05 04:38:13;;;;;;;;;;;19.60;99.90;;;;;;4896738;29;19927;-75
2022/07/05 04:40:43;;;;;;;;;;;19.60;99.90;;;;;;4896467;29;20341;-75
2022/07/05 04:43:10;;;;;;;;;;;19.70;99.90;;;;;;4896159;29;19927;-75
2022/07/05 04:45:37;;;;;;;;;;;19.80;99.90;;;;;;4880882;29;20433;-75
2022/07/05 04:48:05;;;;;;;;;;;19.90;99.90;;;;;;4896067;29;19927;-75
2022/07/05 04:50:36;;;;;;;;;;;20.10;99.90;;;;;;4896664;29;19931;-75
2022/07/05 04:53:05;;;;;;;;;;;20.20;99.90;;;;;;4896145;29;19970;-75
2022/07/05 04:55:32;;;;;;;;;;;20.30;99.90;;;;;;4897958;29;19927;-75
2022/07/05 04:57:59;;;;;;;;;;;20.40;99.90;;;;;;4897348;29;19934;-76
2022/07/05 05:00:26;;;;;;;;;;;20.40;99.90;;;;;;4895999;29;20017;-75
2022/07/05 05:02:53;;;;;;;;;;;20.50;99.90;;;;;;4897152;29;19927;-76
2022/07/05 05:05:20;;;;;;;;;;;20.60;99.90;;;;;;4880638;29;19927;-76
2022/07/05 05:07:49;;;;;;;;;;;20.70;99.90;;;;;;4895972;29;19983;-75
2022/07/05 05:10:16;;;;;;;;;;;20.70;99.90;;;;;;4895552;29;19928;-75
2022/07/05 05:12:43;;;;;;;;;;;20.70;99.90;;;;;;4895901;29;20426;-75
2022/07/05 05:15:10;;;;;;;;;;;20.80;99.90;;;;;;4880368;29;19934;-76
2022/07/05 05:17:38;;;;;;;;;;;20.90;99.90;;;;;;4895292;29;19975;-76
2022/07/05 05:20:07;;;;;;;;;;;21.00;99.90;;;;;;4897016;29;19927;-75
2022/07/05 05:22:34;;;;;;;;;;;21.10;99.90;;;;;;4896843;29;20462;-76
2022/07/05 05:25:03;;;;;;;;;;;21.10;99.90;;;;;;4895370;29;19979;-76
2022/07/05 05:27:30;;;;;;;;;;;21.20;99.90;;;;;;4895109;29;19927;-77
2022/07/05 05:29:58;;;;;;;;;;;21.20;99.90;;;;;;4896656;29;19934;-76
2022/07/05 05:32:25;;;;;;;;;;;21.30;99.90;;;;;;4895683;29;19932;-77
2022/07/05 05:34:52;;;;;;;;;;;21.30;99.90;;;;;;4896732;29;20026;-75
2022/07/05 05:37:19;;;;;;;;;;;21.40;99.90;;;;;;4895424;29;19927;-75
2022/07/05 05:39:46;;;;;;;;;;;21.50;99.90;;;;;;4896834;29;19966;-75
2022/07/05 05:42:15;;;;;;;;;;;21.50;99.90;;;;;;4894977;29;19934;-75
2022/07/05 05:44:42;;;;;;;;;;;21.60;99.90;;;;;;4896440;29;19970;-74
2022/07/05 05:47:09;;;;;;;;;;;21.70;99.90;;;;;;4895139;29;19959;-75
2022/07/05 05:49:36;;;;;;;;;;;21.90;99.90;;;;;;4896317;29;20400;-75
2022/07/05 05:52:03;;;;;;;;;;;22.00;99.90;;;;;;4896627;29;19928;-75
2022/07/05 05:54:30;;;;;;;;;;;22.10;99.90;;;;;;4896297;29;20030;-75
2022/07/05 05:56:57;;;;;;;;;;;22.20;99.90;;;;;;4879926;29;19966;-74
2022/07/05 05:59:26;;;;;;;;;;;22.50;99.90;;;;;;4895160;29;20467;-74
2022/07/05 06:01:53;;;;;;;;;;;22.80;99.90;;;;;;4895052;29;19985;-75
2022/07/05 06:04:20;;;;;;;;;;;22.70;99.90;;;;;;4895040;29;19927;-75
2022/07/05 06:06:47;;;;;;;;;;;22.60;99.90;;;;;;4896283;29;20399;-73
2022/07/05 06:09:14;;;;;;;;;;;22.40;99.90;;;;;;4896066;29;19962;-74
2022/07/05 06:11:41;;;;;;;;;;;22.40;99.90;;;;;;4896184;29;19934;-75
2022/07/05 06:14:09;;;;;;;;;;;22.50;99.90;;;;;;4896696;29;19963;-73
2022/07/05 06:16:37;;;;;;;;;;;22.80;99.90;;;;;;4879500;29;20347;-75
2022/07/05 06:19:04;;;;;;;;;;;23.10;99.90;;;;;;4895283;29;19965;-75
2022/07/05 06:21:31;;;;;;;;;;;23.20;99.90;;;;;;4896600;29;19927;-75
2022/07/05 06:23:59;;;;;;;;;;;23.20;99.90;;;;;;4895107;29;20026;-75
2022/07/05 06:26:26;;;;;;;;;;;23.10;99.90;;;;;;4879476;29;20115;-75
2022/07/05 06:28:53;;;;;;;;;;;23.10;99.90;;;;;;4896422;29;19927;-75
2022/07/05 06:31:20;;;;;;;;;;;23.20;99.90;;;;;;4879706;29;19950;-76
2022/07/05 06:33:48;;;;;;;;;;;23.30;99.90;;;;;;4878242;29;19934;-75
2022/07/05 06:36:15;;;;;;;;;;;23.70;99.90;;;;;;4895208;29;20439;-75
2022/07/05 06:38:43;;;;;;;;;;;24.10;99.90;;;;;;4901684;29;20030;-74
2022/07/05 06:41:10;;;;;;;;;;;24.70;99.90;;;;;;4887308;29;19927;-75
2022/07/05 06:43:37;;;;;;;;;;;25.10;99.90;;;;;;4892435;29;20302;-76
2022/07/05 06:46:09;;;;;;;;;;;26.00;99.90;;;;;;4870020;29;20042;-76
2022/07/05 06:48:36;;;;;;;;;;;26.50;99.90;;;;;;4879053;29;20085;-76
2022/07/05 06:51:04;;;;;;;;;;;26.60;99.90;;;;;;4885774;29;20069;-76
2022/07/05 06:53:31;;;;;;;;;;;26.60;99.90;;;;;;4897105;29;19928;-76
2022/07/05 06:55:59;;;;;;;;;;;26.50;99.90;;;;;;4896073;29;19927;-77
2022/07/05 06:58:26;;;;;;;;;;;26.60;99.90;;;;;;4895041;29;19927;-77
2022/07/05 07:00:53;;;;;;;;;;;27.20;99.90;;;;;;4894806;29;19927;-75
2022/07/05 07:03:21;;;;;;;;;;;27.30;99.90;;;;;;4895645;29;19934;-76
2022/07/05 07:05:48;;;;;;;;;;;27.20;99.90;;;;;;4895504;29;20375;-76
2022/07/05 07:11:01;;;;;;;;;;;26.60;99.90;;;;;;4899076;29;20334;-75
2022/07/05 07:13:28;;;;;;;;;;;26.30;99.90;;;;;;4899000;29;20358;-76
2022/07/05 07:15:55;;;;;;;;;;;26.00;99.90;;;;;;4899284;29;19931;-75
2022/07/05 07:18:22;;;;;;;;;;;25.80;99.90;;;;;;4901720;29;20393;-74
2022/07/05 07:20:49;;;;;;;;;;;25.80;99.90;;;;;;4915655;29;19927;-76
2022/07/05 07:23:19;;;;;;;;;;;26.20;99.90;;;;;;4897886;29;20543;-76
2022/07/05 07:25:48;;;;;;;;;;;26.90;99.90;;;;;;4914449;29;20307;-76
2022/07/05 07:28:15;;;;;;;;;;;27.90;99.90;;;;;;4879964;29;19955;-75
2022/07/05 07:30:42;;;;;;;;;;;28.30;99.90;;;;;;4880522;29;19933;-75
2022/07/05 07:33:09;;;;;;;;;;;28.90;99.90;;;;;;4879687;29;19927;-76
2022/07/05 07:35:36;;;;;;;;;;;29.60;99.90;;;;;;4878541;29;20440;-74
2022/07/05 07:38:03;;;;;;;;;;;29.60;99.90;;;;;;4879854;29;19935;-75
2022/07/05 07:40:31;;;;;;;;;;;29.10;99.90;;;;;;4880000;29;20339;-76
2022/07/05 07:42:59;;;;;;;;;;;29.10;99.90;;;;;;4889597;29;19927;-76
2022/07/05 07:45:27;;;;;;;;;;;29.70;99.90;;;;;;4889815;29;20466;-76
2022/07/05 07:47:54;;;;;;;;;;;29.90;99.90;;;;;;4896982;29;19931;-76
2022/07/05 07:50:22;;;;;;;;;;;29.10;99.90;;;;;;4892312;29;20392;-76
2022/07/05 07:52:49;;;;;;;;;;;28.50;99.90;;;;;;4872835;29;19927;-76
2022/07/05 07:55:16;;;;;;;;;;;28.10;99.90;;;;;;4896999;29;20311;-80
2022/07/05 07:57:44;;;;;;;;;;;27.90;99.90;;;;;;4898906;29;19967;-79
2022/07/05 08:00:12;;;;;;;;;;;27.70;99.90;;;;;;4898319;29;19928;-78
2022/07/05 08:02:39;;;;;;;;;;;27.40;99.90;;;;;;4899581;29;19928;-80
2022/07/05 08:05:09;;;;;;;;;;;27.10;99.90;;;;;;4897930;29;19963;-79
2022/07/05 08:07:36;;;;;;;;;;;26.80;99.90;;;;;;4898699;29;19927;-79
2022/07/05 08:10:04;;;;;;;;;;;26.60;99.90;;;;;;4900058;29;19927;-79
2022/07/05 08:12:31;;;;;;;;;;;26.30;99.90;;;;;;4898593;29;19970;-81
2022/07/05 08:14:59;;;;;;;;;;;25.80;99.90;;;;;;4881977;29;19978;-80
2022/07/05 08:17:26;;;;;;;;;;;25.60;99.90;;;;;;4897602;29;20029;-78
2022/07/05 08:22:38;;;;;;;;;;;26.80;99.90;;;;;;4898298;29;20388;-80
2022/07/05 08:25:06;;;;;;;;;;;28.40;99.90;;;;;;4881308;29;19927;-82
2022/07/05 08:27:33;;;;;;;;;;;29.50;99.90;;;;;;4898502;29;20337;-80
2022/07/05 08:30:02;;;;;;;;;;;30.40;99.90;;;;;;4898842;29;19927;-79
2022/07/05 08:32:30;;;;;;;;;;;31.40;99.40;;;;;;4897989;29;20018;-80
2022/07/05 08:34:58;;;;;;;;;;;31.50;95.60;;;;;;4896620;29;19950;-79
2022/07/05 08:37:25;;;;;;;;;;;31.70;93.90;;;;;;4897623;29;19927;-79
2022/07/05 08:39:52;;;;;;;;;;;31.30;90.90;;;;;;4897664;29;19975;-78
2022/07/05 08:42:19;;;;;;;;;;;30.50;90.70;;;;;;4897311;29;20419;-78
2022/07/05 08:44:46;;;;;;;;;;;29.70;93.40;;;;;;4894565;29;19929;-78
2022/07/05 08:47:15;;;;;;;;;;;29.20;95.20;;;;;;4897132;29;19927;-78
2022/07/05 08:49:44;;;;;;;;;;;28.70;95.70;;;;;;4897378;29;20384;-79
2022/07/05 08:52:12;;;;;;;;;;;28.30;97.60;;;;;;4897326;29;19927;-79
2022/07/05 08:54:40;;;;;;;;;;;28.30;98.80;;;;;;4880556;29;20382;-82
2022/07/05 08:57:07;;;;;;;;;;;29.50;98.80;;;;;;4896616;29;19935;-80
2022/07/05 08:59:34;;;;;;;;;;;30.90;94.20;;;;;;4897538;29;20296;-78
2022/07/05 09:02:02;;;;;;;;;;;32.50;86.60;;;;;;4897284;29;19934;-80
2022/07/05 09:04:32;;;;;;;;;;;33.10;82.00;;;;;;4885293;29;19927;-80
2022/07/05 09:07:04;;;;;;;;;;;33.50;75.40;;;;;;4891138;29;19935;-79
2022/07/05 09:09:32;;;;;;;;;;;34.50;74.40;;;;;;4895156;29;19927;-79
2022/07/05 09:12:00;;;;;;;;;;;35.20;68.10;;;;;;4899412;29;19927;-81
2022/07/05 09:14:27;;;;;;;;;;;35.20;66.30;;;;;;4907056;29;20407;-80
2022/07/05 09:16:57;;;;;;;;;;;34.20;64.90;;;;;;4902608;29;19928;-77
2022/07/05 09:19:24;;;;;;;;;;;33.80;70.70;;;;;;4899548;29;20029;-79
2022/07/05 09:22:01;;;;;;;;;;;34.40;66.90;;;;;;4905573;29;19930;-80
2022/07/05 09:24:28;;;;;;;;;;;35.10;65.40;;;;;;4905177;29;19937;-80
2022/07/05 09:27:02;;;;;;;;;;;36.00;64.10;;;;;;4900653;29;20400;-77
2022/07/05 09:29:29;;;;;;;;;;;35.70;62.40;;;;;;4899662;29;19927;-76
2022/07/05 09:31:56;;;;;;;;;;;34.50;64.00;;;;;;4896725;29;20022;-74
2022/07/05 09:34:23;;;;;;;;;;;34.20;63.70;;;;;;4896572;29;19956;-76
2022/07/05 09:36:51;;;;;;;;;;;34.20;64.30;;;;;;4894962;29;20285;-75
2022/07/05 09:39:34;;;;;;;;;;;34.30;61.90;;;;;;4895181;29;20281;-75
2022/07/05 09:42:12;;;;;;;;;;;35.10;60.40;;;;;;4896172;29;19949;-76
2022/07/05 09:44:39;;;;;;;;;;;34.70;58.40;;;;;;4896331;29;19934;-74
2022/07/05 09:47:11;;;;;;;;;;;34.90;56.70;;;;;;4894843;29;20396;-75
2022/07/05 09:49:38;;;;;;;;;;;35.40;56.40;;;;;;4895625;29;19957;-76
2022/07/05 09:52:05;;;;;;;;;;;36.00;56.10;;;;;;4894027;29;20402;-75
2022/07/05 09:54:34;;;;;;;;;;;36.70;55.30;;;;;;4893965;29;20388;-75
2022/07/05 09:57:05;;;;;;;;;;;37.20;53.40;;;;;;4897060;29;19927;-76
2022/07/05 09:59:33;;;;;;;;;;;37.70;53.40;;;;;;4895824;29;20510;-75
2022/07/05 10:02:00;;;;;;;;;;;37.90;51.50;;;;;;4895867;29;19938;-74
2022/07/05 10:04:27;;;;;;;;;;;38.20;51.10;;;;;;4894584;29;19927;-74
2022/07/05 10:06:54;;;;;;;;;;;38.50;51.50;;;;;;4895654;29;19927;-74
2022/07/05 10:09:22;;;;;;;;;;;38.60;50.30;;;;;;4894062;29;20475;-75
2022/07/05 10:11:51;;;;;;;;;;;38.70;51.10;;;;;;4896187;29;19933;-77
2022/07/05 10:14:21;;;;;;;;;;;38.80;51.20;;;;;;4879020;29;19965;-78
2022/07/05 10:16:53;;;;;;;;;;;39.00;50.10;;;;;;4889263;29;19958;-79
2022/07/05 10:19:21;;;;;;;;;;;38.80;48.80;;;;;;4891898;29;19927;-79
2022/07/05 10:21:48;;;;;;;;;;;38.90;49.50;;;;;;4892915;29;20399;-79
2022/07/05 10:24:16;;;;;;;;;;;39.20;50.20;;;;;;4887294;29;20481;-80
2022/07/05 10:26:45;;;;;;;;;;;39.30;51.00;;;;;;4873406;29;19970;-79
2022/07/05 10:29:12;;;;;;;;;;;39.30;49.50;;;;;;4887890;29;20026;-80
2022/07/05 10:31:40;;;;;;;;;;;39.50;49.40;;;;;;4893446;29;19931;-79
2022/07/05 10:34:08;;;;;;;;;;;39.60;50.30;;;;;;4889230;29;19932;-81
2022/07/05 10:36:37;;;;;;;;;;;39.70;51.10;;;;;;4893690;29;20010;-80
2022/07/05 10:39:05;;;;;;;;;;;39.70;50.50;;;;;;4887960;29;20037;-81
2022/07/05 10:41:32;;;;;;;;;;;39.60;48.60;;;;;;4893421;29;19927;-80
2022/07/05 10:43:59;;;;;;;;;;;39.30;50.70;;;;;;4895998;29;19969;-80
2022/07/05 10:46:36;;;;;;;;;;;39.20;49.30;;;;;;4904613;29;19928;-80
2022/07/05 10:49:17;;;;;;;;;;;39.40;50.20;;;;;;4900077;29;19962;-79
2022/07/05 10:51:44;;;;;;;;;;;39.70;49.90;;;;;;4899698;29;19975;-82
2022/07/05 10:54:11;;;;;;;;;;;40.00;49.80;;;;;;4894438;29;20025;-80
2022/07/05 10:56:40;;;;;;;;;;;39.90;48.90;;;;;;4897664;29;19931;-82
2022/07/05 10:59:09;;;;;;;;;;;40.10;47.60;;;;;;4892721;29;20353;-83
2022/07/05 11:01:39;;;;;;;;;;;40.10;47.00;;;;;;4894494;29;19927;-80
2022/07/05 11:04:23;;;;;;;;;;;39.50;47.20;;;;;;4892118;29;19927;-78
2022/07/05 11:06:50;;;;;;;;;;;39.40;47.40;;;;;;4888233;29;19928;-79
2022/07/05 11:09:18;;;;;;;;;;;39.30;47.50;;;;;;4884170;29;19927;-79
2022/07/05 11:11:47;;;;;;;;;;;38.10;48.60;;;;;;4879582;29;19983;-79
2022/07/05 11:14:30;;;;;;;;;;;37.20;50.80;;;;;;4893257;29;19927;-80
2022/07/05 11:17:11;;;;;;;;;;;37.80;50.30;;;;;;4895210;29;19931;-80
2022/07/05 11:19:53;;;;;;;;;;;38.70;49.60;;;;;;4889958;29;19932;-80
2022/07/05 11:22:22;;;;;;;;;;;39.50;48.30;;;;;;4894042;29;19982;-79
2022/07/05 11:24:49;;;;;;;;;;;40.20;48.00;;;;;;4892688;29;19963;-81
2022/07/05 11:27:17;;;;;;;;;;;40.80;47.30;;;;;;4895821;29;19927;-82
2022/07/05 11:29:44;;;;;;;;;;;41.20;47.00;;;;;;4891934;29;20403;-84
2022/07/05 11:32:13;;;;;;;;;;;41.40;46.20;;;;;;4896434;29;20030;-83
2022/07/05 11:34:41;;;;;;;;;;;41.30;44.80;;;;;;4896712;29;19926;-85
2022/07/05 11:37:33;;;;;;;;;;;41.20;45.00;;;;;;4896877;29;20448;-79
2022/07/05 11:40:19;;;;;;;;;;;41.00;46.30;;;;;;4892258;29;19959;-81
2022/07/05 11:42:48;;;;;;;;;;;41.10;45.80;;;;;;4897265;29;19967;-81
2022/07/05 11:45:15;;;;;;;;;;;39.90;47.40;;;;;;4897118;29;19946;-81
2022/07/05 11:47:43;;;;;;;;;;;38.20;48.40;;;;;;4896887;29;19934;-83
2022/07/05 11:50:11;;;;;;;;;;;37.00;51.10;;;;;;4879935;29;20476;-82
2022/07/05 11:52:39;;;;;;;;;;;37.10;50.10;;;;;;4895248;29;19934;-80
2022/07/05 11:55:07;;;;;;;;;;;36.70;50.90;;;;;;4880185;29;20452;-82
2022/07/05 11:57:34;;;;;;;;;;;35.70;53.20;;;;;;4894782;29;20018;-79
2022/07/05 12:00:05;;;;;;;;;;;34.80;55.70;;;;;;4880242;29;19927;-80
2022/07/05 12:02:44;;;;;;;;;;;34.30;53.00;;;;;;4895419;29;19927;-80
2022/07/05 12:05:12;;;;;;;;;;;34.80;52.90;;;;;;4901836;29;20038;-83
2022/07/05 12:07:40;;;;;;;;;;;34.90;52.60;;;;;;4880503;29;19994;-83
2022/07/05 12:12:53;;;;;;;;;;;36.30;53.70;;;;;;4894338;29;19927;-79
2022/07/05 12:15:22;;;;;;;;;;;37.90;51.40;;;;;;4892941;29;20026;-80
2022/07/05 12:17:50;;;;;;;;;;;39.00;50.60;;;;;;4894748;29;19994;-80
2022/07/05 12:20:21;;;;;;;;;;;39.80;48.90;;;;;;4896442;29;20380;-78
2022/07/05 12:22:48;;;;;;;;;;;40.40;48.20;;;;;;4896083;29;19928;-79
2022/07/05 12:25:17;;;;;;;;;;;40.80;47.50;;;;;;4896302;29;19927;-80
2022/07/05 12:27:45;;;;;;;;;;;41.00;46.80;;;;;;4896583;29;19927;-82
2022/07/05 12:30:12;;;;;;;;;;;41.00;46.30;;;;;;4895411;29;19927;-81
2022/07/05 12:32:54;;;;;;;;;;;40.70;45.90;;;;;;4895923;29;19927;-81
2022/07/05 12:35:34;;;;;;;;;;;39.70;47.10;;;;;;4896338;29;19975;-81
2022/07/05 12:38:12;;;;;;;;;;;39.80;47.30;;;;;;4896079;29;19934;-80
2022/07/05 12:40:39;;;;;;;;;;;40.60;47.30;;;;;;4896648;29;20438;-82
2022/07/05 12:43:07;;;;;;;;;;;41.10;46.40;;;;;;4896022;29;19958;-80
2022/07/05 12:45:35;;;;;;;;;;;41.50;44.80;;;;;;4897051;29;19927;-81
2022/07/05 12:48:05;;;;;;;;;;;40.60;46.50;;;;;;4895722;29;19928;-80
2022/07/05 12:50:47;;;;;;;;;;;40.00;47.20;;;;;;4880294;29;20022;-81
2022/07/05 12:58:48;;;;;;;;;;;40.90;47.00;;;;;;4880513;29;19939;-80
2022/07/05 13:01:22;;;;;;;;;;;40.80;46.80;;;;;;4897530;29;19989;-81
2022/07/05 13:04:08;;;;;;;;;;;41.10;45.90;;;;;;4895787;29;20469;-81
2022/07/05 13:06:50;;;;;;;;;;;41.30;42.70;;;;;;4896664;29;19927;-82
2022/07/05 13:09:30;;;;;;;;;;;41.00;43.30;;;;;;4897271;29;19934;-83
2022/07/05 13:12:05;;;;;;;;;;;40.40;45.90;;;;;;4897103;29;19927;-81
2022/07/05 13:14:32;;;;;;;;;;;40.80;45.40;;;;;;4897313;29;19927;-81
2022/07/05 13:17:00;;;;;;;;;;;41.30;43.50;;;;;;4897119;29;19938;-82
2022/07/05 13:19:27;;;;;;;;;;;40.10;44.60;;;;;;4897724;29;19979;-82
2022/07/05 13:21:55;;;;;;;;;;;39.00;46.70;;;;;;4896866;29;19970;-81
2022/07/05 13:24:22;;;;;;;;;;;39.50;45.80;;;;;;4897661;29;19959;-83
2022/07/05 13:26:49;;;;;;;;;;;40.60;44.50;;;;;;4897322;29;20019;-81
2022/07/05 13:29:17;;;;;;;;;;;41.00;44.70;;;;;;4895391;29;20525;-80
2022/07/05 13:31:44;;;;;;;;;;;41.00;42.60;;;;;;4896797;29;19927;-81
2022/07/05 13:34:11;;;;;;;;;;;40.60;43.40;;;;;;4895197;29;20488;-82
2022/07/05 13:36:38;;;;;;;;;;;40.80;44.20;;;;;;4896430;29;20012;-82
2022/07/05 13:39:07;;;;;;;;;;;41.10;42.70;;;;;;4895855;29;19927;-81
2022/07/05 13:41:34;;;;;;;;;;;41.30;42.40;;;;;;4895273;29;20031;-82
2022/07/05 13:44:01;;;;;;;;;;;41.50;42.90;;;;;;4894899;29;19928;-80
2022/07/05 13:46:28;;;;;;;;;;;41.50;42.40;;;;;;4878922;29;20026;-81
2022/07/05 13:48:56;;;;;;;;;;;39.80;42.90;;;;;;4895862;29;20069;-82
2022/07/05 13:51:23;;;;;;;;;;;39.30;44.80;;;;;;4879085;29;20391;-80
2022/07/05 13:53:50;;;;;;;;;;;39.60;45.10;;;;;;4896260;29;19974;-82
2022/07/05 13:56:19;;;;;;;;;;;40.00;44.30;;;;;;4895742;29;19975;-81
2022/07/05 13:58:46;;;;;;;;;;;40.50;44.90;;;;;;4895898;29;19935;-81
2022/07/05 14:01:13;;;;;;;;;;;39.60;43.80;;;;;;4878975;29;19927;-83
2022/07/05 14:03:40;;;;;;;;;;;38.00;46.50;;;;;;4879497;29;20026;-80
2022/07/05 14:06:08;;;;;;;;;;;37.80;47.40;;;;;;4894430;29;20471;-80
2022/07/05 14:08:35;;;;;;;;;;;37.60;47.40;;;;;;4894387;29;20297;-79
2022/07/05 14:11:02;;;;;;;;;;;36.90;49.40;;;;;;4895763;29;19927;-80
2022/07/05 14:13:31;;;;;;;;;;;35.80;50.10;;;;;;4895347;29;20439;-80
2022/07/05 14:15:58;;;;;;;;;;;35.30;50.90;;;;;;4895489;29;19976;-80
2022/07/05 14:18:25;;;;;;;;;;;34.50;53.10;;;;;;4894590;29;19927;-80
2022/07/05 14:20:53;;;;;;;;;;;34.00;54.90;;;;;;4895636;29;20418;-79
2022/07/05 14:23:20;;;;;;;;;;;33.80;55.80;;;;;;4894355;29;20360;-80
2022/07/05 14:25:47;;;;;;;;;;;32.90;54.70;;;;;;4896523;29;20448;-81
2022/07/05 14:28:14;;;;;;;;;;;32.00;55.30;;;;;;4896088;29;19927;-79
2022/07/05 14:30:44;;;;;;;;;;;31.20;56.40;;;;;;4894545;29;19931;-80
2022/07/05 14:33:11;;;;;;;;;;;30.90;57.20;;;;;;4895937;29;19931;-81
2022/07/05 14:35:39;;;;;;;;;;;30.70;57.10;;;;;;4896275;29;19934;-81
2022/07/05 14:38:07;;;;;;;;;;;30.60;58.10;;;;;;4896236;29;19927;-81